sensor_id;sensor_type;location;lat;lon;timestamp;P1;durP1;ratioP1;P2;durP2;ratioP2
22070;SDS011;11200;51.488;6.668;2023-07-31T00:00:26;3.70;;;2.05;;
22070;SDS011;11200;51.488;6.668;2023-07-31T00:02:52;2.45;;;2.00;;
22070;SDS011;11200;51.488;6.668;2023-07-31T00:05:18;3.58;;;2.00;;
22070;SDS011;11200;51.488;6.668;2023-07-31T00:07:43;3.30;;;2.33;;
22070;SDS011;11200;51.488;6.668;2023-07-31T00:10:10;3.55;;;2.40;;
22070;SDS011;11200;51.488;6.668;2023-07-31T00:12:37;2.83;;;2.03;;
22070;SDS011;11200;51.488;6.668;2023-07-31T00:15:03;3.08;;;2.38;;
22070;SDS011;11200;51.488;6.668;2023-07-31T00:17:30;3.10;;;2.10;;
22070;SDS011;11200;51.488;6.668;2023-07-31T00:19:55;4.38;;;2.45;;
22070;SDS011;11200;51.488;6.668;2023-07-31T00:22:21;3.20;;;2.03;;
22070;SDS011;11200;51.488;6.668;2023-07-31T00:24:47;3.55;;;2.28;;
22070;SDS011;11200;51.488;6.668;2023-07-31T00:27:12;3.05;;;2.35;;
22070;SDS011;11200;51.488;6.668;2023-07-31T00:29:38;2.47;;;2.20;;
22070;SDS011;11200;51.488;6.668;2023-07-31T00:32:04;4.40;;;2.70;;
22070;SDS011;11200;51.488;6.668;2023-07-31T00:34:30;3.88;;;2.63;;
22070;SDS011;11200;51.488;6.668;2023-07-31T00:36:56;4.75;;;2.53;;
22070;SDS011;11200;51.488;6.668;2023-07-31T00:39:22;4.85;;;2.50;;
22070;SDS011;11200;51.488;6.668;2023-07-31T00:41:48;3.97;;;2.72;;
22070;SDS011;11200;51.488;6.668;2023-07-31T00:44:13;3.05;;;2.45;;
22070;SDS011;11200;51.488;6.668;2023-07-31T00:46:39;4.53;;;2.72;;
22070;SDS011;11200;51.488;6.668;2023-07-31T00:49:05;5.28;;;3.08;;
22070;SDS011;11200;51.488;6.668;2023-07-31T00:51:31;5.20;;;3.20;;
22070;SDS011;11200;51.488;6.668;2023-07-31T00:53:57;4.88;;;2.60;;
22070;SDS011;11200;51.488;6.668;2023-07-31T00:56:23;5.95;;;3.13;;
22070;SDS011;11200;51.488;6.668;2023-07-31T00:58:50;4.78;;;2.90;;
22070;SDS011;11200;51.488;6.668;2023-07-31T01:01:16;4.57;;;2.83;;
22070;SDS011;11200;51.488;6.668;2023-07-31T01:03:44;4.82;;;2.95;;
22070;SDS011;11200;51.488;6.668;2023-07-31T01:11:32;6.63;;;3.22;;
22070;SDS011;11200;51.488;6.668;2023-07-31T01:14:00;5.97;;;3.53;;
22070;SDS011;11200;51.488;6.668;2023-07-31T01:19:00;6.10;;;3.20;;
22070;SDS011;11200;51.488;6.668;2023-07-31T01:21:30;5.78;;;3.40;;
22070;SDS011;11200;51.488;6.668;2023-07-31T01:27:15;5.75;;;2.90;;
22070;SDS011;11200;51.488;6.668;2023-07-31T01:29:53;6.20;;;3.28;;
22070;SDS011;11200;51.488;6.668;2023-07-31T01:32:24;6.20;;;2.80;;
22070;SDS011;11200;51.488;6.668;2023-07-31T01:34:53;6.03;;;3.55;;
22070;SDS011;11200;51.488;6.668;2023-07-31T01:37:19;6.57;;;3.40;;
22070;SDS011;11200;51.488;6.668;2023-07-31T01:39:44;4.97;;;3.10;;
22070;SDS011;11200;51.488;6.668;2023-07-31T01:42:10;5.72;;;3.10;;
22070;SDS011;11200;51.488;6.668;2023-07-31T01:44:36;6.28;;;3.40;;
22070;SDS011;11200;51.488;6.668;2023-07-31T01:47:01;5.57;;;3.28;;
22070;SDS011;11200;51.488;6.668;2023-07-31T01:49:27;5.00;;;3.13;;
22070;SDS011;11200;51.488;6.668;2023-07-31T01:51:53;5.35;;;3.17;;
22070;SDS011;11200;51.488;6.668;2023-07-31T01:54:19;5.32;;;3.25;;
22070;SDS011;11200;51.488;6.668;2023-07-31T01:56:44;5.45;;;3.38;;
22070;SDS011;11200;51.488;6.668;2023-07-31T01:59:10;5.72;;;3.60;;
22070;SDS011;11200;51.488;6.668;2023-07-31T02:01:36;5.20;;;3.50;;
22070;SDS011;11200;51.488;6.668;2023-07-31T02:04:01;6.32;;;3.40;;
22070;SDS011;11200;51.488;6.668;2023-07-31T02:06:27;6.57;;;3.80;;
22070;SDS011;11200;51.488;6.668;2023-07-31T02:08:53;6.70;;;3.60;;
22070;SDS011;11200;51.488;6.668;2023-07-31T02:11:18;5.90;;;3.70;;
22070;SDS011;11200;51.488;6.668;2023-07-31T02:13:44;5.25;;;3.13;;
22070;SDS011;11200;51.488;6.668;2023-07-31T02:16:10;6.47;;;3.30;;
22070;SDS011;11200;51.488;6.668;2023-07-31T02:18:35;6.00;;;3.53;;
22070;SDS011;11200;51.488;6.668;2023-07-31T02:21:01;6.90;;;3.80;;
22070;SDS011;11200;51.488;6.668;2023-07-31T02:23:27;5.57;;;3.60;;
22070;SDS011;11200;51.488;6.668;2023-07-31T02:25:53;8.50;;;3.70;;
22070;SDS011;11200;51.488;6.668;2023-07-31T02:28:18;6.82;;;3.78;;
22070;SDS011;11200;51.488;6.668;2023-07-31T02:30:44;6.45;;;3.70;;
22070;SDS011;11200;51.488;6.668;2023-07-31T02:33:14;7.60;;;3.80;;
22070;SDS011;11200;51.488;6.668;2023-07-31T02:35:41;5.45;;;3.38;;
22070;SDS011;11200;51.488;6.668;2023-07-31T02:38:06;6.75;;;3.60;;
22070;SDS011;11200;51.488;6.668;2023-07-31T02:40:32;6.47;;;3.45;;
22070;SDS011;11200;51.488;6.668;2023-07-31T02:42:58;6.53;;;3.60;;
22070;SDS011;11200;51.488;6.668;2023-07-31T02:45:23;5.75;;;3.53;;
22070;SDS011;11200;51.488;6.668;2023-07-31T02:47:50;6.38;;;3.60;;
22070;SDS011;11200;51.488;6.668;2023-07-31T02:50:15;6.45;;;3.70;;
22070;SDS011;11200;51.488;6.668;2023-07-31T02:52:41;5.55;;;3.42;;
22070;SDS011;11200;51.488;6.668;2023-07-31T02:55:07;6.05;;;4.15;;
22070;SDS011;11200;51.488;6.668;2023-07-31T02:57:32;6.60;;;3.40;;
22070;SDS011;11200;51.488;6.668;2023-07-31T02:59:58;8.50;;;4.15;;
22070;SDS011;11200;51.488;6.668;2023-07-31T03:02:24;8.20;;;3.78;;
22070;SDS011;11200;51.488;6.668;2023-07-31T03:04:49;6.43;;;3.45;;
22070;SDS011;11200;51.488;6.668;2023-07-31T03:07:15;7.45;;;3.65;;
22070;SDS011;11200;51.488;6.668;2023-07-31T03:09:41;5.65;;;3.67;;
22070;SDS011;11200;51.488;6.668;2023-07-31T03:12:07;6.63;;;3.72;;
22070;SDS011;11200;51.488;6.668;2023-07-31T03:14:33;7.50;;;3.58;;
22070;SDS011;11200;51.488;6.668;2023-07-31T03:16:59;7.13;;;3.38;;
22070;SDS011;11200;51.488;6.668;2023-07-31T03:19:24;6.32;;;3.42;;
22070;SDS011;11200;51.488;6.668;2023-07-31T03:21:50;6.60;;;3.35;;
22070;SDS011;11200;51.488;6.668;2023-07-31T03:24:16;6.45;;;3.60;;
22070;SDS011;11200;51.488;6.668;2023-07-31T03:26:41;7.60;;;4.00;;
22070;SDS011;11200;51.488;6.668;2023-07-31T03:29:07;8.57;;;3.92;;
22070;SDS011;11200;51.488;6.668;2023-07-31T03:31:33;7.07;;;4.05;;
22070;SDS011;11200;51.488;6.668;2023-07-31T03:33:59;8.27;;;3.60;;
22070;SDS011;11200;51.488;6.668;2023-07-31T03:36:25;5.95;;;3.75;;
22070;SDS011;11200;51.488;6.668;2023-07-31T03:38:51;6.13;;;3.67;;
22070;SDS011;11200;51.488;6.668;2023-07-31T03:41:17;6.10;;;3.40;;
22070;SDS011;11200;51.488;6.668;2023-07-31T03:43:43;6.30;;;3.88;;
22070;SDS011;11200;51.488;6.668;2023-07-31T03:46:08;6.40;;;3.63;;
22070;SDS011;11200;51.488;6.668;2023-07-31T03:48:34;8.35;;;3.72;;
22070;SDS011;11200;51.488;6.668;2023-07-31T03:51:00;5.85;;;3.38;;
22070;SDS011;11200;51.488;6.668;2023-07-31T03:53:25;5.60;;;3.17;;
22070;SDS011;11200;51.488;6.668;2023-07-31T03:55:51;7.90;;;3.83;;
22070;SDS011;11200;51.488;6.668;2023-07-31T03:58:16;6.13;;;3.35;;
22070;SDS011;11200;51.488;6.668;2023-07-31T04:00:42;6.65;;;3.60;;
22070;SDS011;11200;51.488;6.668;2023-07-31T04:03:08;6.13;;;3.38;;
22070;SDS011;11200;51.488;6.668;2023-07-31T04:05:37;7.05;;;3.95;;
22070;SDS011;11200;51.488;6.668;2023-07-31T04:08:03;6.53;;;3.78;;
22070;SDS011;11200;51.488;6.668;2023-07-31T04:10:29;6.10;;;3.53;;
22070;SDS011;11200;51.488;6.668;2023-07-31T04:12:59;5.50;;;3.33;;
22070;SDS011;11200;51.488;6.668;2023-07-31T04:15:25;6.47;;;3.60;;
22070;SDS011;11200;51.488;6.668;2023-07-31T04:17:51;5.03;;;3.50;;
22070;SDS011;11200;51.488;6.668;2023-07-31T04:20:17;6.30;;;3.60;;
22070;SDS011;11200;51.488;6.668;2023-07-31T04:22:43;7.43;;;3.58;;
22070;SDS011;11200;51.488;6.668;2023-07-31T04:25:08;7.55;;;3.55;;
22070;SDS011;11200;51.488;6.668;2023-07-31T04:27:34;7.15;;;3.80;;
22070;SDS011;11200;51.488;6.668;2023-07-31T04:30:00;5.20;;;3.80;;
22070;SDS011;11200;51.488;6.668;2023-07-31T04:32:27;5.75;;;3.42;;
22070;SDS011;11200;51.488;6.668;2023-07-31T04:34:53;4.88;;;3.17;;
22070;SDS011;11200;51.488;6.668;2023-07-31T04:37:19;5.53;;;3.35;;
22070;SDS011;11200;51.488;6.668;2023-07-31T04:39:45;7.05;;;3.75;;
22070;SDS011;11200;51.488;6.668;2023-07-31T04:42:10;4.97;;;3.55;;
22070;SDS011;11200;51.488;6.668;2023-07-31T04:44:36;5.20;;;3.35;;
22070;SDS011;11200;51.488;6.668;2023-07-31T04:47:02;5.57;;;3.30;;
22070;SDS011;11200;51.488;6.668;2023-07-31T04:49:27;4.93;;;3.40;;
22070;SDS011;11200;51.488;6.668;2023-07-31T04:51:53;5.75;;;3.40;;
22070;SDS011;11200;51.488;6.668;2023-07-31T04:54:19;5.57;;;3.40;;
22070;SDS011;11200;51.488;6.668;2023-07-31T04:56:44;4.80;;;3.22;;
22070;SDS011;11200;51.488;6.668;2023-07-31T04:59:10;5.90;;;3.13;;
22070;SDS011;11200;51.488;6.668;2023-07-31T05:01:36;5.63;;;3.50;;
22070;SDS011;11200;51.488;6.668;2023-07-31T05:04:01;6.97;;;3.47;;
22070;SDS011;11200;51.488;6.668;2023-07-31T05:06:27;5.53;;;3.50;;
22070;SDS011;11200;51.488;6.668;2023-07-31T05:08:54;5.75;;;3.38;;
22070;SDS011;11200;51.488;6.668;2023-07-31T05:11:19;5.72;;;3.58;;
22070;SDS011;11200;51.488;6.668;2023-07-31T05:13:45;4.43;;;2.67;;
22070;SDS011;11200;51.488;6.668;2023-07-31T05:16:11;4.93;;;3.70;;
22070;SDS011;11200;51.488;6.668;2023-07-31T05:18:36;6.05;;;3.38;;
22070;SDS011;11200;51.488;6.668;2023-07-31T05:21:02;6.47;;;3.35;;
22070;SDS011;11200;51.488;6.668;2023-07-31T05:23:28;3.70;;;3.13;;
22070;SDS011;11200;51.488;6.668;2023-07-31T05:25:54;4.72;;;3.38;;
22070;SDS011;11200;51.488;6.668;2023-07-31T05:28:21;5.85;;;3.50;;
22070;SDS011;11200;51.488;6.668;2023-07-31T05:30:46;5.63;;;3.75;;
22070;SDS011;11200;51.488;6.668;2023-07-31T05:33:12;5.05;;;3.50;;
22070;SDS011;11200;51.488;6.668;2023-07-31T05:35:38;5.18;;;3.38;;
22070;SDS011;11200;51.488;6.668;2023-07-31T05:38:03;4.88;;;3.15;;
22070;SDS011;11200;51.488;6.668;2023-07-31T05:40:31;6.43;;;3.50;;
22070;SDS011;11200;51.488;6.668;2023-07-31T05:42:58;5.15;;;3.30;;
22070;SDS011;11200;51.488;6.668;2023-07-31T05:45:24;4.88;;;3.05;;
22070;SDS011;11200;51.488;6.668;2023-07-31T05:47:50;5.43;;;3.45;;
22070;SDS011;11200;51.488;6.668;2023-07-31T05:50:17;5.00;;;3.60;;
22070;SDS011;11200;51.488;6.668;2023-07-31T05:52:43;5.07;;;3.40;;
22070;SDS011;11200;51.488;6.668;2023-07-31T05:55:09;5.43;;;3.92;;
22070;SDS011;11200;51.488;6.668;2023-07-31T05:57:36;5.50;;;3.42;;
22070;SDS011;11200;51.488;6.668;2023-07-31T06:00:02;5.38;;;3.38;;
22070;SDS011;11200;51.488;6.668;2023-07-31T06:02:27;6.50;;;3.65;;
22070;SDS011;11200;51.488;6.668;2023-07-31T06:04:53;4.70;;;3.15;;
22070;SDS011;11200;51.488;6.668;2023-07-31T06:07:19;4.45;;;3.40;;
22070;SDS011;11200;51.488;6.668;2023-07-31T06:09:44;6.07;;;3.40;;
22070;SDS011;11200;51.488;6.668;2023-07-31T06:12:10;6.40;;;3.60;;
22070;SDS011;11200;51.488;6.668;2023-07-31T06:14:36;5.55;;;3.63;;
22070;SDS011;11200;51.488;6.668;2023-07-31T06:17:02;5.13;;;3.10;;
22070;SDS011;11200;51.488;6.668;2023-07-31T06:19:27;5.20;;;3.33;;
22070;SDS011;11200;51.488;6.668;2023-07-31T06:21:53;4.03;;;3.60;;
22070;SDS011;11200;51.488;6.668;2023-07-31T06:24:19;4.88;;;3.20;;
22070;SDS011;11200;51.488;6.668;2023-07-31T06:26:45;5.30;;;3.80;;
22070;SDS011;11200;51.488;6.668;2023-07-31T06:29:11;4.93;;;3.38;;
22070;SDS011;11200;51.488;6.668;2023-07-31T06:31:36;5.72;;;3.63;;
22070;SDS011;11200;51.488;6.668;2023-07-31T06:34:02;6.43;;;3.80;;
22070;SDS011;11200;51.488;6.668;2023-07-31T06:36:28;4.60;;;3.25;;
22070;SDS011;11200;51.488;6.668;2023-07-31T06:38:59;6.35;;;3.72;;
22070;SDS011;11200;51.488;6.668;2023-07-31T06:41:27;6.68;;;3.80;;
22070;SDS011;11200;51.488;6.668;2023-07-31T06:43:53;4.40;;;3.40;;
22070;SDS011;11200;51.488;6.668;2023-07-31T06:46:18;5.03;;;3.45;;
22070;SDS011;11200;51.488;6.668;2023-07-31T06:48:44;4.55;;;3.55;;
22070;SDS011;11200;51.488;6.668;2023-07-31T06:51:10;5.50;;;3.35;;
22070;SDS011;11200;51.488;6.668;2023-07-31T06:53:36;4.32;;;3.33;;
22070;SDS011;11200;51.488;6.668;2023-07-31T06:56:01;5.93;;;3.85;;
22070;SDS011;11200;51.488;6.668;2023-07-31T06:58:27;6.25;;;3.60;;
22070;SDS011;11200;51.488;6.668;2023-07-31T07:00:53;3.92;;;2.95;;
22070;SDS011;11200;51.488;6.668;2023-07-31T07:03:18;4.20;;;3.53;;
22070;SDS011;11200;51.488;6.668;2023-07-31T07:05:45;6.18;;;3.40;;
22070;SDS011;11200;51.488;6.668;2023-07-31T07:08:11;4.50;;;3.60;;
22070;SDS011;11200;51.488;6.668;2023-07-31T07:10:36;3.80;;;3.30;;
22070;SDS011;11200;51.488;6.668;2023-07-31T07:13:02;5.07;;;3.35;;
22070;SDS011;11200;51.488;6.668;2023-07-31T07:15:28;4.50;;;3.30;;
22070;SDS011;11200;51.488;6.668;2023-07-31T07:17:54;5.03;;;3.13;;
22070;SDS011;11200;51.488;6.668;2023-07-31T07:20:19;7.65;;;3.42;;
22070;SDS011;11200;51.488;6.668;2023-07-31T07:22:45;4.50;;;2.95;;
22070;SDS011;11200;51.488;6.668;2023-07-31T07:25:11;4.85;;;3.10;;
22070;SDS011;11200;51.488;6.668;2023-07-31T07:27:36;3.83;;;3.00;;
22070;SDS011;11200;51.488;6.668;2023-07-31T07:30:02;4.78;;;2.95;;
22070;SDS011;11200;51.488;6.668;2023-07-31T07:32:28;4.03;;;3.35;;
22070;SDS011;11200;51.488;6.668;2023-07-31T07:34:54;5.05;;;3.40;;
22070;SDS011;11200;51.488;6.668;2023-07-31T07:37:21;5.22;;;3.45;;
22070;SDS011;11200;51.488;6.668;2023-07-31T07:39:46;4.05;;;3.20;;
22070;SDS011;11200;51.488;6.668;2023-07-31T07:42:12;6.05;;;3.30;;
22070;SDS011;11200;51.488;6.668;2023-07-31T07:44:37;4.35;;;3.33;;
22070;SDS011;11200;51.488;6.668;2023-07-31T07:47:03;4.30;;;3.35;;
22070;SDS011;11200;51.488;6.668;2023-07-31T07:49:31;4.13;;;3.35;;
22070;SDS011;11200;51.488;6.668;2023-07-31T07:51:57;6.50;;;3.63;;
22070;SDS011;11200;51.488;6.668;2023-07-31T07:54:23;5.28;;;3.20;;
22070;SDS011;11200;51.488;6.668;2023-07-31T07:56:49;5.05;;;3.35;;
22070;SDS011;11200;51.488;6.668;2023-07-31T07:59:14;4.75;;;3.30;;
22070;SDS011;11200;51.488;6.668;2023-07-31T08:01:40;4.43;;;2.80;;
22070;SDS011;11200;51.488;6.668;2023-07-31T08:04:06;3.40;;;2.78;;
22070;SDS011;11200;51.488;6.668;2023-07-31T08:06:31;3.42;;;2.65;;
22070;SDS011;11200;51.488;6.668;2023-07-31T08:08:57;3.92;;;3.20;;
22070;SDS011;11200;51.488;6.668;2023-07-31T08:11:24;3.70;;;2.55;;
22070;SDS011;11200;51.488;6.668;2023-07-31T08:13:50;3.53;;;2.65;;
22070;SDS011;11200;51.488;6.668;2023-07-31T08:16:15;3.78;;;2.97;;
22070;SDS011;11200;51.488;6.668;2023-07-31T08:18:41;3.50;;;2.67;;
22070;SDS011;11200;51.488;6.668;2023-07-31T08:21:10;3.75;;;2.63;;
22070;SDS011;11200;51.488;6.668;2023-07-31T08:23:35;4.22;;;2.92;;
22070;SDS011;11200;51.488;6.668;2023-07-31T08:26:01;3.35;;;2.42;;
22070;SDS011;11200;51.488;6.668;2023-07-31T08:28:27;3.13;;;2.47;;
22070;SDS011;11200;51.488;6.668;2023-07-31T08:30:52;4.05;;;2.53;;
22070;SDS011;11200;51.488;6.668;2023-07-31T08:33:19;3.28;;;2.70;;
22070;SDS011;11200;51.488;6.668;2023-07-31T08:35:44;3.90;;;2.60;;
22070;SDS011;11200;51.488;6.668;2023-07-31T08:38:11;3.28;;;2.50;;
22070;SDS011;11200;51.488;6.668;2023-07-31T08:40:37;6.00;;;2.80;;
22070;SDS011;11200;51.488;6.668;2023-07-31T08:43:03;2.97;;;2.58;;
22070;SDS011;11200;51.488;6.668;2023-07-31T08:45:29;3.05;;;2.35;;
22070;SDS011;11200;51.488;6.668;2023-07-31T08:47:56;3.67;;;2.22;;
22070;SDS011;11200;51.488;6.668;2023-07-31T08:50:22;3.92;;;2.35;;
22070;SDS011;11200;51.488;6.668;2023-07-31T08:52:48;4.30;;;2.35;;
22070;SDS011;11200;51.488;6.668;2023-07-31T08:55:15;2.75;;;2.33;;
22070;SDS011;11200;51.488;6.668;2023-07-31T08:57:41;2.97;;;2.38;;
22070;SDS011;11200;51.488;6.668;2023-07-31T09:00:08;2.90;;;2.35;;
22070;SDS011;11200;51.488;6.668;2023-07-31T09:05:11;3.72;;;2.28;;
22070;SDS011;11200;51.488;6.668;2023-07-31T09:07:37;4.07;;;2.63;;
22070;SDS011;11200;51.488;6.668;2023-07-31T09:10:04;4.45;;;2.35;;
22070;SDS011;11200;51.488;6.668;2023-07-31T09:12:30;2.88;;;2.40;;
22070;SDS011;11200;51.488;6.668;2023-07-31T09:14:57;2.85;;;2.30;;
22070;SDS011;11200;51.488;6.668;2023-07-31T09:17:29;4.30;;;2.53;;
22070;SDS011;11200;51.488;6.668;2023-07-31T09:19:56;3.45;;;2.55;;
22070;SDS011;11200;51.488;6.668;2023-07-31T09:22:31;3.25;;;2.30;;
22070;SDS011;11200;51.488;6.668;2023-07-31T09:25:04;4.00;;;2.53;;
22070;SDS011;11200;51.488;6.668;2023-07-31T09:30:25;2.78;;;2.28;;
22070;SDS011;11200;51.488;6.668;2023-07-31T09:32:52;2.67;;;2.10;;
22070;SDS011;11200;51.488;6.668;2023-07-31T09:35:28;3.13;;;2.30;;
22070;SDS011;11200;51.488;6.668;2023-07-31T09:37:58;3.97;;;2.38;;
22070;SDS011;11200;51.488;6.668;2023-07-31T09:40:31;3.22;;;2.22;;
22070;SDS011;11200;51.488;6.668;2023-07-31T09:43:00;7.28;;;2.40;;
22070;SDS011;11200;51.488;6.668;2023-07-31T09:45:27;2.33;;;2.10;;
22070;SDS011;11200;51.488;6.668;2023-07-31T09:47:54;3.13;;;2.20;;
22070;SDS011;11200;51.488;6.668;2023-07-31T09:50:22;5.10;;;2.47;;
22070;SDS011;11200;51.488;6.668;2023-07-31T09:52:49;3.25;;;2.20;;
22070;SDS011;11200;51.488;6.668;2023-07-31T09:55:15;2.70;;;2.22;;
22070;SDS011;11200;51.488;6.668;2023-07-31T09:57:42;2.88;;;2.25;;
22070;SDS011;11200;51.488;6.668;2023-07-31T10:00:12;3.05;;;2.28;;
22070;SDS011;11200;51.488;6.668;2023-07-31T10:02:40;2.97;;;2.20;;
22070;SDS011;11200;51.488;6.668;2023-07-31T10:05:07;2.50;;;2.10;;
22070;SDS011;11200;51.488;6.668;2023-07-31T10:07:36;2.60;;;2.10;;
22070;SDS011;11200;51.488;6.668;2023-07-31T10:10:07;2.50;;;2.13;;
22070;SDS011;11200;51.488;6.668;2023-07-31T10:12:34;2.33;;;2.05;;
22070;SDS011;11200;51.488;6.668;2023-07-31T10:15:01;2.55;;;2.25;;
22070;SDS011;11200;51.488;6.668;2023-07-31T10:17:28;2.95;;;1.98;;
22070;SDS011;11200;51.488;6.668;2023-07-31T10:19:55;2.53;;;2.30;;
22070;SDS011;11200;51.488;6.668;2023-07-31T10:22:24;3.17;;;2.20;;
22070;SDS011;11200;51.488;6.668;2023-07-31T10:24:50;3.10;;;2.20;;
22070;SDS011;11200;51.488;6.668;2023-07-31T10:27:17;2.40;;;2.15;;
22070;SDS011;11200;51.488;6.668;2023-07-31T10:29:43;2.70;;;2.28;;
22070;SDS011;11200;51.488;6.668;2023-07-31T10:32:12;4.72;;;2.28;;
22070;SDS011;11200;51.488;6.668;2023-07-31T10:34:39;3.63;;;2.25;;
22070;SDS011;11200;51.488;6.668;2023-07-31T10:37:25;4.20;;;2.40;;
22070;SDS011;11200;51.488;6.668;2023-07-31T10:40:28;3.10;;;2.22;;
22070;SDS011;11200;51.488;6.668;2023-07-31T10:42:54;4.13;;;2.60;;
22070;SDS011;11200;51.488;6.668;2023-07-31T10:48:05;2.85;;;2.05;;
22070;SDS011;11200;51.488;6.668;2023-07-31T10:50:38;2.95;;;2.20;;
22070;SDS011;11200;51.488;6.668;2023-07-31T10:53:10;2.90;;;2.08;;
22070;SDS011;11200;51.488;6.668;2023-07-31T10:55:51;2.92;;;2.38;;
22070;SDS011;11200;51.488;6.668;2023-07-31T10:58:18;3.17;;;2.15;;
22070;SDS011;11200;51.488;6.668;2023-07-31T11:00:45;3.55;;;2.20;;
22070;SDS011;11200;51.488;6.668;2023-07-31T11:03:14;2.92;;;2.17;;
22070;SDS011;11200;51.488;6.668;2023-07-31T11:05:44;3.45;;;2.30;;
22070;SDS011;11200;51.488;6.668;2023-07-31T11:08:11;3.72;;;2.20;;
22070;SDS011;11200;51.488;6.668;2023-07-31T11:10:45;2.50;;;2.28;;
22070;SDS011;11200;51.488;6.668;2023-07-31T11:13:12;3.90;;;2.40;;
22070;SDS011;11200;51.488;6.668;2023-07-31T11:15:38;3.97;;;2.47;;
22070;SDS011;11200;51.488;6.668;2023-07-31T11:18:04;3.25;;;2.42;;
22070;SDS011;11200;51.488;6.668;2023-07-31T11:20:31;2.95;;;2.13;;
22070;SDS011;11200;51.488;6.668;2023-07-31T11:23:01;2.53;;;2.08;;
22070;SDS011;11200;51.488;6.668;2023-07-31T11:25:28;3.65;;;2.20;;
22070;SDS011;11200;51.488;6.668;2023-07-31T11:27:56;2.60;;;2.17;;
22070;SDS011;11200;51.488;6.668;2023-07-31T11:30:23;3.95;;;2.35;;
22070;SDS011;11200;51.488;6.668;2023-07-31T11:32:49;2.58;;;2.38;;
22070;SDS011;11200;51.488;6.668;2023-07-31T11:35:16;3.22;;;2.15;;
22070;SDS011;11200;51.488;6.668;2023-07-31T11:37:43;3.03;;;2.20;;
22070;SDS011;11200;51.488;6.668;2023-07-31T11:40:09;3.65;;;2.10;;
22070;SDS011;11200;51.488;6.668;2023-07-31T11:42:35;2.53;;;2.00;;
22070;SDS011;11200;51.488;6.668;2023-07-31T11:45:05;2.97;;;2.42;;
22070;SDS011;11200;51.488;6.668;2023-07-31T11:47:35;2.17;;;1.90;;
22070;SDS011;11200;51.488;6.668;2023-07-31T11:50:02;4.07;;;2.30;;
22070;SDS011;11200;51.488;6.668;2023-07-31T11:52:36;2.88;;;2.35;;
22070;SDS011;11200;51.488;6.668;2023-07-31T11:55:05;3.17;;;2.00;;
22070;SDS011;11200;51.488;6.668;2023-07-31T11:57:34;2.45;;;2.03;;
22070;SDS011;11200;51.488;6.668;2023-07-31T12:00:02;2.60;;;1.90;;
22070;SDS011;11200;51.488;6.668;2023-07-31T12:02:28;2.67;;;1.98;;
22070;SDS011;11200;51.488;6.668;2023-07-31T12:04:54;2.58;;;2.08;;
22070;SDS011;11200;51.488;6.668;2023-07-31T12:07:20;2.67;;;2.30;;
22070;SDS011;11200;51.488;6.668;2023-07-31T12:09:54;2.38;;;1.80;;
22070;SDS011;11200;51.488;6.668;2023-07-31T12:12:24;2.17;;;1.98;;
22070;SDS011;11200;51.488;6.668;2023-07-31T12:14:50;2.90;;;2.13;;
22070;SDS011;11200;51.488;6.668;2023-07-31T12:17:17;4.30;;;2.30;;
22070;SDS011;11200;51.488;6.668;2023-07-31T12:19:45;3.15;;;2.00;;
22070;SDS011;11200;51.488;6.668;2023-07-31T12:22:12;2.60;;;2.13;;
22070;SDS011;11200;51.488;6.668;2023-07-31T12:24:42;2.60;;;2.10;;
22070;SDS011;11200;51.488;6.668;2023-07-31T12:27:12;2.83;;;1.80;;
22070;SDS011;11200;51.488;6.668;2023-07-31T12:29:39;2.42;;;2.10;;
22070;SDS011;11200;51.488;6.668;2023-07-31T12:32:27;2.78;;;2.15;;
22070;SDS011;11200;51.488;6.668;2023-07-31T12:34:55;3.05;;;2.15;;
22070;SDS011;11200;51.488;6.668;2023-07-31T12:37:26;2.92;;;2.10;;
22070;SDS011;11200;51.488;6.668;2023-07-31T12:39:51;2.35;;;2.00;;
22070;SDS011;11200;51.488;6.668;2023-07-31T12:42:17;2.88;;;1.98;;
22070;SDS011;11200;51.488;6.668;2023-07-31T12:44:43;3.58;;;2.05;;
22070;SDS011;11200;51.488;6.668;2023-07-31T12:47:09;2.65;;;1.95;;
22070;SDS011;11200;51.488;6.668;2023-07-31T12:49:34;2.40;;;1.92;;
22070;SDS011;11200;51.488;6.668;2023-07-31T12:52:00;4.05;;;2.47;;
22070;SDS011;11200;51.488;6.668;2023-07-31T12:54:25;2.55;;;2.22;;
22070;SDS011;11200;51.488;6.668;2023-07-31T12:56:51;2.83;;;2.00;;
22070;SDS011;11200;51.488;6.668;2023-07-31T12:59:17;3.40;;;2.30;;
22070;SDS011;11200;51.488;6.668;2023-07-31T13:01:42;3.83;;;2.28;;
22070;SDS011;11200;51.488;6.668;2023-07-31T13:04:08;2.25;;;1.80;;
22070;SDS011;11200;51.488;6.668;2023-07-31T13:06:34;3.92;;;2.15;;
22070;SDS011;11200;51.488;6.668;2023-07-31T13:08:59;2.88;;;2.20;;
22070;SDS011;11200;51.488;6.668;2023-07-31T13:11:25;2.72;;;1.90;;
22070;SDS011;11200;51.488;6.668;2023-07-31T13:13:51;2.92;;;2.13;;
22070;SDS011;11200;51.488;6.668;2023-07-31T13:16:16;3.20;;;1.95;;
22070;SDS011;11200;51.488;6.668;2023-07-31T13:23:45;2.70;;;2.17;;
22070;SDS011;11200;51.488;6.668;2023-07-31T13:26:11;2.00;;;1.80;;
22070;SDS011;11200;51.488;6.668;2023-07-31T13:28:36;3.30;;;1.90;;
22070;SDS011;11200;51.488;6.668;2023-07-31T13:31:02;2.40;;;2.00;;
22070;SDS011;11200;51.488;6.668;2023-07-31T13:33:28;2.42;;;2.20;;
22070;SDS011;11200;51.488;6.668;2023-07-31T13:35:53;2.33;;;2.10;;
22070;SDS011;11200;51.488;6.668;2023-07-31T13:38:19;3.50;;;2.20;;
22070;SDS011;11200;51.488;6.668;2023-07-31T13:40:45;2.63;;;2.20;;
22070;SDS011;11200;51.488;6.668;2023-07-31T13:43:10;2.30;;;1.95;;
22070;SDS011;11200;51.488;6.668;2023-07-31T13:45:36;2.55;;;1.92;;
22070;SDS011;11200;51.488;6.668;2023-07-31T13:48:01;2.83;;;2.13;;
22070;SDS011;11200;51.488;6.668;2023-07-31T13:50:27;2.45;;;2.10;;
22070;SDS011;11200;51.488;6.668;2023-07-31T13:52:53;3.88;;;2.40;;
22070;SDS011;11200;51.488;6.668;2023-07-31T13:55:18;3.00;;;2.40;;
22070;SDS011;11200;51.488;6.668;2023-07-31T13:57:44;2.42;;;1.98;;
22070;SDS011;11200;51.488;6.668;2023-07-31T14:00:10;2.90;;;2.10;;
22070;SDS011;11200;51.488;6.668;2023-07-31T14:02:36;2.67;;;2.33;;
22070;SDS011;11200;51.488;6.668;2023-07-31T14:05:02;2.47;;;2.20;;
22070;SDS011;11200;51.488;6.668;2023-07-31T14:07:28;2.38;;;2.15;;
22070;SDS011;11200;51.488;6.668;2023-07-31T14:09:54;3.40;;;2.40;;
22070;SDS011;11200;51.488;6.668;2023-07-31T14:12:19;2.92;;;2.28;;
22070;SDS011;11200;51.488;6.668;2023-07-31T14:14:45;3.35;;;2.13;;
22070;SDS011;11200;51.488;6.668;2023-07-31T14:17:11;3.03;;;2.40;;
22070;SDS011;11200;51.488;6.668;2023-07-31T14:19:36;3.03;;;2.30;;
22070;SDS011;11200;51.488;6.668;2023-07-31T14:22:02;2.75;;;2.33;;
22070;SDS011;11200;51.488;6.668;2023-07-31T14:24:28;2.88;;;2.30;;
22070;SDS011;11200;51.488;6.668;2023-07-31T14:26:54;3.13;;;2.60;;
22070;SDS011;11200;51.488;6.668;2023-07-31T14:29:19;2.70;;;2.30;;
22070;SDS011;11200;51.488;6.668;2023-07-31T14:31:45;3.67;;;2.67;;
22070;SDS011;11200;51.488;6.668;2023-07-31T14:34:11;3.13;;;2.53;;
22070;SDS011;11200;51.488;6.668;2023-07-31T14:36:36;3.10;;;2.70;;
22070;SDS011;11200;51.488;6.668;2023-07-31T14:39:02;3.45;;;2.63;;
22070;SDS011;11200;51.488;6.668;2023-07-31T14:41:28;2.95;;;2.50;;
22070;SDS011;11200;51.488;6.668;2023-07-31T14:43:53;3.05;;;2.30;;
22070;SDS011;11200;51.488;6.668;2023-07-31T14:46:19;3.28;;;2.60;;
22070;SDS011;11200;51.488;6.668;2023-07-31T14:48:44;3.03;;;2.70;;
22070;SDS011;11200;51.488;6.668;2023-07-31T14:51:10;3.10;;;2.67;;
22070;SDS011;11200;51.488;6.668;2023-07-31T14:53:36;3.75;;;2.63;;
22070;SDS011;11200;51.488;6.668;2023-07-31T14:56:01;4.13;;;3.13;;
22070;SDS011;11200;51.488;6.668;2023-07-31T14:58:27;4.10;;;2.83;;
22070;SDS011;11200;51.488;6.668;2023-07-31T15:00:53;2.70;;;2.50;;
22070;SDS011;11200;51.488;6.668;2023-07-31T15:03:19;3.80;;;3.00;;
22070;SDS011;11200;51.488;6.668;2023-07-31T15:05:44;3.83;;;2.80;;
22070;SDS011;11200;51.488;6.668;2023-07-31T15:08:10;3.67;;;2.80;;